createdAt,value
2018-07-19T00:00:15.291Z,6.70
2018-07-19T00:02:44.540Z,7.07
2018-07-19T00:05:13.684Z,6.23
2018-07-19T00:07:42.904Z,6.73
2018-07-19T00:10:12.094Z,6.70
2018-07-19T00:12:41.279Z,7.63
2018-07-19T00:15:10.476Z,7.07
2018-07-19T00:17:39.725Z,6.90
2018-07-19T00:20:08.922Z,7.20
2018-07-19T00:22:38.109Z,6.50
2018-07-19T00:25:07.256Z,7.10
2018-07-19T00:27:36.437Z,7.17
2018-07-19T00:30:05.799Z,6.87
2018-07-19T00:32:35.077Z,7.47
2018-07-19T00:35:04.223Z,6.77
2018-07-19T00:37:33.401Z,7.90
2018-07-19T00:40:02.569Z,7.60
2018-07-19T00:42:31.780Z,6.60
2018-07-19T00:45:01.010Z,7.50
2018-07-19T00:47:30.293Z,6.67
2018-07-19T00:49:59.460Z,6.80
2018-07-19T00:52:28.655Z,6.03
2018-07-19T00:54:58.072Z,6.10
2018-07-19T00:57:27.249Z,6.80
2018-07-19T00:59:56.401Z,6.60
2018-07-19T01:02:25.574Z,6.50
2018-07-19T01:04:54.771Z,6.93
2018-07-19T01:07:23.959Z,6.30
2018-07-19T01:09:53.116Z,7.20
2018-07-19T01:12:22.262Z,6.70
2018-07-19T01:14:51.436Z,6.87
2018-07-19T01:17:20.601Z,7.03
2018-07-19T01:19:49.820Z,6.20
2018-07-19T01:22:19.066Z,6.37
2018-07-19T01:24:48.229Z,6.53
2018-07-19T01:27:17.378Z,6.90
2018-07-19T01:29:46.576Z,6.57
2018-07-19T01:32:15.732Z,7.40
2018-07-19T01:34:44.982Z,7.27
2018-07-19T01:37:14.159Z,7.80
2018-07-19T01:39:43.317Z,6.53
2018-07-19T01:42:24.856Z,6.33
2018-07-19T01:44:53.991Z,7.10
2018-07-19T01:47:23.181Z,6.00
2018-07-19T01:49:52.402Z,5.80
2018-07-19T01:52:21.802Z,5.87
2018-07-19T01:54:50.943Z,5.90
2018-07-19T01:57:20.681Z,6.30
2018-07-19T01:59:50.312Z,6.20
2018-07-19T02:02:20.045Z,5.90
2018-07-19T02:04:49.455Z,6.37
2018-07-19T02:07:18.605Z,6.37
2018-07-19T02:09:47.777Z,5.97
2018-07-19T02:12:16.952Z,5.13
2018-07-19T02:14:46.141Z,5.60
2018-07-19T02:17:15.256Z,6.07
2018-07-19T02:19:44.491Z,5.80
2018-07-19T02:22:13.659Z,5.53
2018-07-19T02:24:42.900Z,5.70
2018-07-19T02:27:12.026Z,5.93
2018-07-19T02:29:41.179Z,5.33
2018-07-19T02:32:10.335Z,5.80
2018-07-19T02:34:39.460Z,5.80
2018-07-19T02:37:08.618Z,4.97
2018-07-19T02:39:37.806Z,5.10
2018-07-19T02:42:06.999Z,5.27
2018-07-19T02:44:38.174Z,4.70
2018-07-19T02:47:07.361Z,4.80
2018-07-19T02:49:36.529Z,4.53
2018-07-19T02:52:05.699Z,4.87
2018-07-19T02:54:34.899Z,5.23
2018-07-19T02:57:04.032Z,4.77
2018-07-19T02:59:33.211Z,5.53
2018-07-19T03:02:02.437Z,5.50
2018-07-19T03:04:31.573Z,5.20
2018-07-19T03:07:00.753Z,5.53
2018-07-19T03:09:29.936Z,5.60
2018-07-19T03:11:59.093Z,4.77
2018-07-19T03:14:28.279Z,5.60
2018-07-19T03:16:57.444Z,4.77
2018-07-19T03:19:26.615Z,4.07
2018-07-19T03:21:55.846Z,5.03
2018-07-19T03:24:25.003Z,5.20
2018-07-19T03:26:54.180Z,4.63
2018-07-19T03:29:23.389Z,4.83
2018-07-19T03:31:52.539Z,5.17
2018-07-19T03:34:21.755Z,4.80
2018-07-19T03:36:51.089Z,5.97
2018-07-19T03:39:20.266Z,5.70
2018-07-19T03:41:49.510Z,5.47
2018-07-19T03:44:18.754Z,5.30
2018-07-19T03:46:47.980Z,5.17
2018-07-19T03:49:17.152Z,5.27
2018-07-19T03:51:46.460Z,6.00
2018-07-19T03:54:15.836Z,6.10
2018-07-19T03:56:45.164Z,6.30
2018-07-19T03:59:14.440Z,5.70
2018-07-19T04:01:43.718Z,5.07
2018-07-19T04:04:13.120Z,5.07
2018-07-19T04:06:42.363Z,4.70
2018-07-19T04:09:11.805Z,5.10
2018-07-19T04:11:40.940Z,5.10
2018-07-19T04:14:10.109Z,5.63
2018-07-19T04:16:39.398Z,4.77
2018-07-19T04:19:08.696Z,5.50
2018-07-19T04:21:37.864Z,5.37
2018-07-19T04:24:07.073Z,5.03
2018-07-19T04:26:36.239Z,5.00
2018-07-19T04:29:05.465Z,4.47
2018-07-19T04:31:34.618Z,4.40
2018-07-19T04:34:03.772Z,4.43
2018-07-19T04:36:32.951Z,4.40
2018-07-19T04:39:02.074Z,4.17
2018-07-19T04:41:31.276Z,4.73
2018-07-19T04:44:00.453Z,5.30
2018-07-19T04:46:29.616Z,3.93
2018-07-19T04:48:58.798Z,4.03
2018-07-19T04:51:27.929Z,4.60
2018-07-19T04:53:57.057Z,4.53
2018-07-19T04:56:26.226Z,3.93
2018-07-19T04:58:55.351Z,4.67
2018-07-19T05:01:24.622Z,3.90
2018-07-19T05:03:53.768Z,5.00
2018-07-19T05:06:22.940Z,4.07
2018-07-19T05:08:52.278Z,3.90
2018-07-19T05:11:21.412Z,3.10
2018-07-19T05:13:50.577Z,3.43
2018-07-19T05:16:19.732Z,3.50
2018-07-19T05:18:48.916Z,3.90
2018-07-19T05:21:18.136Z,3.53
2018-07-19T05:23:47.291Z,3.23
2018-07-19T05:26:16.496Z,2.93
2018-07-19T05:28:45.650Z,3.23
2018-07-19T05:31:14.820Z,3.33
2018-07-19T05:33:43.968Z,3.40
2018-07-19T05:36:13.148Z,3.60
2018-07-19T05:38:42.292Z,5.43
2018-07-19T05:41:11.497Z,3.63
2018-07-19T05:43:40.641Z,3.83
2018-07-19T05:46:09.881Z,3.07
2018-07-19T05:48:39.033Z,3.20
2018-07-19T05:51:08.246Z,3.13
2018-07-19T05:53:37.426Z,3.13
2018-07-19T05:56:06.600Z,3.20
2018-07-19T05:58:35.784Z,2.80
2018-07-19T06:01:04.993Z,2.73
2018-07-19T06:03:34.161Z,3.60
2018-07-19T06:06:03.388Z,2.23
2018-07-19T06:08:32.598Z,3.30
2018-07-19T06:11:01.740Z,2.50
2018-07-19T06:13:30.906Z,2.80
2018-07-19T06:16:00.108Z,2.30
2018-07-19T06:18:29.272Z,2.60
2018-07-19T06:20:58.821Z,2.93
2018-07-19T06:23:28.036Z,2.47
2018-07-19T06:25:57.431Z,2.60
2018-07-19T06:28:26.729Z,2.00
2018-07-19T06:30:55.947Z,2.30
2018-07-19T06:33:25.144Z,2.10
2018-07-19T06:35:54.348Z,2.27
2018-07-19T06:38:23.715Z,2.80
2018-07-19T06:40:52.883Z,2.30
2018-07-19T06:43:22.086Z,2.03
2018-07-19T06:45:51.283Z,2.07
2018-07-19T06:48:20.461Z,2.13
2018-07-19T06:50:49.649Z,2.33
2018-07-19T06:53:18.792Z,1.50
2018-07-19T06:55:47.973Z,2.20
2018-07-19T06:58:17.167Z,2.30
2018-07-19T07:00:46.291Z,1.93
2018-07-19T07:03:15.438Z,2.20
2018-07-19T07:05:44.804Z,1.83
2018-07-19T07:08:13.995Z,2.10
2018-07-19T07:10:43.169Z,1.60
2018-07-19T07:13:12.335Z,2.40
2018-07-19T07:15:41.525Z,2.17
2018-07-19T07:18:10.719Z,1.90
2018-07-19T07:20:44.470Z,2.03
2018-07-19T07:23:13.723Z,2.07
2018-07-19T07:25:48.581Z,1.90
2018-07-19T07:28:18.746Z,1.70
2018-07-19T07:30:47.890Z,1.70
2018-07-19T07:33:18.236Z,1.70
2018-07-19T07:35:48.939Z,1.67
2018-07-19T07:38:19.308Z,2.20
2018-07-19T07:40:49.131Z,2.00
2018-07-19T07:43:18.652Z,1.90
2018-07-19T07:45:48.840Z,1.90
2018-07-19T07:48:18.291Z,2.00
2018-07-19T07:50:48.289Z,2.87
2018-07-19T07:53:18.670Z,2.13
2018-07-19T07:55:48.491Z,2.53
2018-07-19T07:58:17.787Z,2.00
2018-07-19T08:00:47.218Z,2.33
2018-07-19T08:03:16.402Z,2.60
2018-07-19T08:05:46.583Z,2.60
2018-07-19T08:08:17.206Z,2.50
2018-07-19T08:10:47.633Z,2.90
2018-07-19T08:13:17.155Z,2.83
2018-07-19T08:15:46.354Z,2.73
2018-07-19T08:18:16.107Z,3.20
2018-07-19T08:20:45.190Z,2.47
2018-07-19T08:23:14.696Z,2.70
2018-07-19T08:25:44.835Z,2.90
2018-07-19T08:28:14.414Z,3.10
2018-07-19T08:30:45.030Z,3.07
2018-07-19T08:33:15.398Z,2.77
2018-07-19T08:35:44.686Z,2.30
2018-07-19T08:38:13.846Z,2.20
2018-07-19T08:40:43.453Z,3.00
2018-07-19T08:43:12.745Z,2.57
2018-07-19T08:45:41.933Z,2.70
2018-07-19T08:48:11.286Z,2.23
2018-07-19T08:50:41.249Z,3.10
2018-07-19T08:53:10.406Z,2.70
2018-07-19T08:55:40.495Z,2.40
2018-07-19T08:58:10.506Z,3.37
2018-07-19T09:00:39.868Z,2.70
2018-07-19T09:03:09.276Z,2.77
2018-07-19T09:05:39.729Z,2.57
2018-07-19T09:08:09.005Z,2.70
2018-07-19T09:10:39.226Z,2.60
2018-07-19T09:13:08.844Z,2.60
2018-07-19T09:15:39.354Z,3.03
2018-07-19T09:18:08.536Z,3.00
2018-07-19T09:24:11.113Z,3.20
2018-07-19T09:26:40.634Z,3.23
2018-07-19T09:29:10.123Z,3.40
2018-07-19T09:31:39.776Z,2.67
2018-07-19T09:34:10.068Z,3.10
2018-07-19T09:36:40.143Z,2.53
2018-07-19T09:39:12.074Z,2.70
2018-07-19T09:41:42.637Z,3.03
2018-07-19T09:44:12.144Z,3.60
2018-07-19T09:46:42.160Z,2.97
2018-07-19T09:49:12.198Z,3.20
2018-07-19T09:51:42.326Z,2.23
2018-07-19T09:54:21.932Z,2.93
2018-07-19T09:56:51.697Z,2.60
2018-07-19T09:59:21.991Z,2.63
2018-07-19T10:01:51.469Z,3.00
2018-07-19T10:04:21.150Z,2.90
2018-07-19T10:06:50.887Z,2.57
2018-07-19T10:09:20.445Z,2.97
2018-07-19T10:11:49.727Z,2.80
2018-07-19T10:14:19.306Z,2.60
2018-07-19T10:16:48.884Z,2.33
2018-07-19T10:19:18.507Z,2.90
2018-07-19T10:21:48.152Z,2.53
2018-07-19T10:24:18.393Z,2.77
2018-07-19T10:26:47.828Z,2.70
2018-07-19T10:29:17.388Z,2.67
2018-07-19T10:31:48.208Z,3.67
2018-07-19T10:34:19.742Z,2.93
2018-07-19T10:36:49.183Z,2.77
2018-07-19T10:39:18.618Z,2.63
2018-07-19T10:41:47.994Z,2.57
2018-07-19T10:44:17.645Z,2.13
2018-07-19T10:46:47.116Z,2.63
2018-07-19T10:49:16.465Z,3.00
2018-07-19T10:51:45.813Z,2.67
2018-07-19T10:54:15.142Z,2.33
2018-07-19T10:56:44.575Z,2.93
2018-07-19T10:59:13.782Z,2.80
2018-07-19T11:01:43.249Z,2.83
2018-07-19T11:04:12.605Z,2.10
2018-07-19T11:06:43.140Z,2.83
2018-07-19T11:09:12.912Z,2.70
2018-07-19T11:11:43.289Z,2.90
2018-07-19T11:14:12.778Z,2.80
2018-07-19T11:16:42.246Z,2.53
2018-07-19T11:19:11.971Z,3.27
2018-07-19T11:21:41.767Z,2.50
2018-07-19T11:24:11.130Z,2.27
2018-07-19T11:26:40.649Z,2.50
2018-07-19T11:29:10.111Z,2.13
2018-07-19T11:31:39.654Z,2.50
2018-07-19T11:34:09.330Z,2.53
2018-07-19T11:36:39.345Z,2.63
2018-07-19T11:39:10.047Z,2.10
2018-07-19T11:41:40.097Z,2.73
2018-07-19T11:44:09.842Z,3.03
2018-07-19T11:46:39.333Z,2.30
2018-07-19T11:49:09.046Z,3.07
2018-07-19T11:51:39.320Z,2.30
2018-07-19T11:54:08.848Z,2.90
2018-07-19T11:56:38.404Z,2.50
2018-07-19T11:59:08.049Z,2.00
2018-07-19T12:01:37.744Z,2.30
2018-07-19T12:04:07.490Z,2.70
2018-07-19T12:06:37.050Z,3.60
2018-07-19T12:09:08.969Z,2.90
2018-07-19T12:11:38.358Z,2.40
2018-07-19T12:14:08.194Z,2.80
2018-07-19T12:16:37.647Z,3.20
2018-07-19T12:19:07.090Z,2.13
2018-07-19T12:21:36.636Z,2.57
2018-07-19T12:24:06.202Z,2.07
2018-07-19T12:26:35.865Z,2.40
2018-07-19T12:29:05.122Z,3.00
2018-07-19T12:31:34.393Z,2.07
2018-07-19T12:34:05.796Z,2.63
2018-07-19T12:36:36.146Z,2.50
2018-07-19T12:39:08.487Z,3.10
2018-07-19T12:41:38.231Z,2.50
2018-07-19T12:44:08.391Z,2.47
2018-07-19T12:46:38.304Z,2.63
2018-07-19T12:49:08.096Z,1.77
2018-07-19T12:51:37.688Z,2.17
2018-07-19T12:54:07.098Z,1.97
2018-07-19T12:56:36.748Z,2.20
2018-07-19T12:59:06.149Z,2.57
2018-07-19T13:01:35.876Z,3.00
2018-07-19T13:04:05.696Z,2.50
2018-07-19T13:06:35.174Z,2.80
2018-07-19T13:09:06.692Z,3.40
2018-07-19T13:11:36.837Z,2.67
2018-07-19T13:14:18.366Z,3.00
2018-07-19T13:16:59.194Z,2.67
2018-07-19T13:19:28.653Z,2.40
2018-07-19T13:21:58.247Z,2.30
2018-07-19T13:24:27.915Z,2.50
2018-07-19T13:26:57.142Z,2.10
2018-07-19T13:29:27.069Z,2.53
2018-07-19T13:31:56.396Z,2.83
2018-07-19T13:34:26.251Z,2.57
2018-07-19T13:36:55.782Z,3.40
2018-07-19T13:39:25.335Z,2.40
2018-07-19T13:41:54.858Z,2.70
2018-07-19T13:44:24.549Z,2.70
2018-07-19T13:46:54.224Z,2.23
2018-07-19T13:49:23.762Z,2.70
2018-07-19T13:51:54.092Z,2.70
2018-07-19T13:54:31.375Z,3.10
2018-07-19T13:57:00.683Z,2.30
2018-07-19T13:59:30.275Z,2.63
2018-07-19T14:02:00.146Z,3.13
2018-07-19T14:04:29.750Z,2.47
2018-07-19T14:06:59.411Z,2.13
2018-07-19T14:09:29.937Z,3.17
2018-07-19T14:11:59.514Z,2.70
2018-07-19T14:14:28.993Z,2.90
2018-07-19T14:16:58.251Z,2.80
2018-07-19T14:19:27.618Z,3.27
2018-07-19T14:21:57.204Z,3.00
2018-07-19T14:24:27.026Z,3.23
2018-07-19T14:26:56.887Z,2.37
2018-07-19T14:29:26.491Z,2.47
2018-07-19T14:31:56.072Z,2.50
2018-07-19T14:34:25.637Z,3.10
2018-07-19T14:36:55.300Z,2.67
2018-07-19T14:39:25.567Z,2.43
2018-07-19T14:41:55.558Z,2.90
2018-07-19T14:44:25.696Z,2.80
2018-07-19T14:46:55.424Z,2.40
2018-07-19T14:49:24.963Z,3.30
2018-07-19T14:51:54.197Z,2.40
2018-07-19T14:54:23.405Z,3.07
2018-07-19T14:56:52.721Z,2.60
2018-07-19T14:59:21.940Z,2.53
2018-07-19T15:01:51.542Z,2.10
2018-07-19T15:04:21.141Z,2.90
2018-07-19T15:06:50.805Z,2.10
2018-07-19T15:09:20.418Z,2.80
2018-07-19T15:11:49.822Z,2.73
2018-07-19T15:14:19.216Z,3.07
2018-07-19T15:16:48.964Z,2.70
2018-07-19T15:19:18.944Z,2.83
2018-07-19T15:21:48.536Z,2.50
2018-07-19T15:24:17.843Z,2.40
2018-07-19T15:26:47.062Z,2.50
2018-07-19T15:29:16.257Z,2.47
2018-07-19T15:31:45.477Z,2.30
2018-07-19T15:34:14.653Z,3.00
2018-07-19T15:36:43.826Z,2.50
2018-07-19T15:39:13.013Z,3.10
2018-07-19T15:41:42.199Z,3.03
2018-07-19T15:44:11.377Z,2.30
2018-07-19T15:46:40.516Z,2.20
2018-07-19T15:49:09.738Z,2.87
2018-07-19T15:51:39.811Z,2.80
2018-07-19T15:54:09.002Z,2.73
2018-07-19T15:56:38.221Z,2.80
2018-07-19T15:59:07.419Z,3.20
2018-07-19T16:01:36.703Z,3.00
2018-07-19T16:04:06.017Z,2.20
2018-07-19T16:06:35.204Z,2.73
2018-07-19T16:09:07.528Z,2.50
2018-07-19T16:11:36.788Z,2.60
2018-07-19T16:14:06.217Z,2.83
2018-07-19T16:16:35.718Z,3.00
2018-07-19T16:19:05.064Z,2.67
2018-07-19T16:21:34.305Z,3.00
2018-07-19T16:24:03.613Z,3.07
2018-07-19T16:26:32.796Z,2.97
2018-07-19T16:29:02.016Z,2.67
2018-07-19T16:31:31.201Z,2.80
2018-07-19T16:34:00.332Z,3.23
2018-07-19T16:36:29.497Z,2.73
2018-07-19T16:38:58.860Z,3.13
2018-07-19T16:41:27.869Z,3.60
2018-07-19T16:43:56.941Z,2.97
2018-07-19T16:46:26.171Z,3.40
2018-07-19T16:48:55.331Z,3.57
2018-07-19T16:51:24.624Z,3.00
2018-07-19T16:53:53.792Z,2.90
2018-07-19T16:56:23.019Z,3.83
2018-07-19T16:58:52.167Z,2.67
2018-07-19T17:01:21.327Z,2.90
2018-07-19T17:03:50.579Z,2.93
2018-07-19T17:06:19.812Z,2.70
2018-07-19T17:08:48.980Z,3.27
2018-07-19T17:11:18.140Z,2.70
2018-07-19T17:13:47.280Z,2.67
2018-07-19T17:16:16.569Z,3.20
2018-07-19T17:18:47.757Z,14.00
2018-07-19T17:21:16.970Z,6.77
2018-07-19T17:23:46.133Z,4.60
2018-07-19T17:26:15.356Z,3.40
2018-07-19T17:28:44.554Z,3.33
2018-07-19T17:31:13.848Z,3.00
2018-07-19T17:33:43.042Z,3.20
2018-07-19T17:36:12.219Z,3.20
2018-07-19T17:38:41.346Z,3.30
2018-07-19T17:41:10.564Z,3.10
2018-07-19T17:43:39.731Z,3.00
2018-07-19T17:46:09.856Z,2.70
2018-07-19T17:48:39.302Z,3.00
2018-07-19T17:51:08.581Z,2.53
2018-07-19T17:53:37.836Z,2.20
2018-07-19T17:56:07.016Z,2.50
2018-07-19T17:58:35.914Z,3.07
2018-07-19T18:01:04.977Z,2.50
2018-07-19T18:03:34.543Z,2.73
2018-07-19T18:06:03.920Z,2.90
2018-07-19T18:08:34.665Z,3.00
2018-07-19T18:11:05.451Z,3.13
2018-07-19T18:13:35.022Z,2.77
2018-07-19T18:16:05.027Z,2.57
2018-07-19T18:18:34.541Z,3.37
2018-07-19T18:21:03.838Z,3.47
2018-07-19T18:23:33.040Z,3.10
2018-07-19T18:26:02.457Z,3.10
2018-07-19T18:28:31.388Z,3.03
2018-07-19T18:31:00.441Z,3.50
2018-07-19T18:33:29.868Z,3.23
2018-07-19T18:35:59.076Z,2.93
2018-07-19T18:38:28.307Z,2.90
2018-07-19T18:40:57.722Z,3.10
2018-07-19T18:43:27.003Z,3.43
2018-07-19T18:45:56.169Z,2.90
2018-07-19T18:48:25.368Z,3.07
2018-07-19T18:50:54.854Z,2.97
2018-07-19T18:53:24.038Z,3.67
2018-07-19T18:55:53.248Z,2.90
2018-07-19T18:58:22.805Z,2.70
2018-07-19T19:00:51.959Z,3.33
2018-07-19T19:03:21.120Z,3.27
2018-07-19T19:05:50.323Z,3.00
2018-07-19T19:08:19.247Z,3.87
2018-07-19T19:10:48.336Z,3.20
2018-07-19T19:13:17.517Z,3.37
2018-07-19T19:15:46.930Z,3.70
2018-07-19T19:18:17.640Z,4.43
2018-07-19T19:20:46.896Z,3.47
2018-07-19T19:23:16.145Z,3.83
2018-07-19T19:25:45.685Z,3.33
2018-07-19T19:28:14.914Z,3.50
2018-07-19T19:30:44.168Z,3.23
2018-07-19T19:33:13.540Z,3.57
2018-07-19T19:35:43.412Z,4.07
2018-07-19T19:38:12.424Z,3.20
2018-07-19T19:40:41.569Z,3.63
2018-07-19T19:43:10.711Z,3.83
2018-07-19T19:45:40.053Z,4.80
2018-07-19T19:48:09.807Z,3.30
2018-07-19T19:50:38.972Z,4.20
2018-07-19T19:53:09.032Z,4.10
2018-07-19T19:55:38.236Z,4.37
2018-07-19T19:58:07.503Z,4.33
2018-07-19T20:00:37.292Z,4.87
2018-07-19T20:03:06.153Z,5.27
2018-07-19T20:05:35.941Z,5.20
2018-07-19T20:08:05.198Z,3.53
2018-07-19T20:10:35.224Z,4.80
2018-07-19T20:13:04.649Z,3.50
2018-07-19T20:15:33.797Z,3.50
2018-07-19T20:18:02.932Z,4.50
2018-07-19T20:20:32.189Z,4.50
2018-07-19T20:23:01.144Z,3.97
2018-07-19T20:25:30.302Z,4.03
2018-07-19T20:27:59.492Z,4.37
2018-07-19T20:30:29.888Z,4.40
2018-07-19T20:32:59.618Z,3.73
2018-07-19T20:35:28.949Z,5.00
2018-07-19T20:37:58.116Z,4.10
2018-07-19T20:40:27.938Z,4.33
2018-07-19T20:42:57.107Z,4.70
2018-07-19T20:45:26.452Z,4.53
2018-07-19T20:47:55.597Z,4.43
2018-07-19T20:50:24.807Z,4.03
2018-07-19T20:52:53.993Z,4.50
2018-07-19T20:55:23.466Z,4.13
2018-07-19T20:57:52.614Z,4.57
2018-07-19T21:00:21.744Z,4.60
2018-07-19T21:02:57.292Z,4.53
2018-07-19T21:05:26.420Z,4.63
2018-07-19T21:07:55.540Z,4.67
2018-07-19T21:10:24.679Z,4.67
2018-07-19T21:12:54.061Z,4.33
2018-07-19T21:15:24.791Z,5.00
2018-07-19T21:17:54.304Z,4.87
2018-07-19T21:20:23.465Z,4.10
2018-07-19T21:22:52.602Z,4.80
2018-07-19T21:25:21.784Z,5.10
2018-07-19T21:27:50.988Z,4.57
2018-07-19T21:30:20.312Z,4.53
2018-07-19T21:32:49.512Z,4.27
2018-07-19T21:35:18.683Z,5.23
2018-07-19T21:37:47.908Z,4.50
2018-07-19T21:40:17.089Z,4.60
2018-07-19T21:42:46.236Z,4.77
2018-07-19T21:45:15.456Z,4.60
2018-07-19T21:47:44.602Z,5.30
2018-07-19T21:50:13.800Z,5.13
2018-07-19T21:52:42.949Z,5.30
2018-07-19T21:55:12.212Z,4.87
2018-07-19T21:57:41.056Z,5.17
2018-07-19T22:00:10.141Z,5.07
2018-07-19T22:02:39.415Z,5.20
2018-07-19T22:05:08.544Z,4.67
2018-07-19T22:07:37.676Z,5.00
2018-07-19T22:10:06.929Z,5.47
2018-07-19T22:12:36.129Z,5.30
2018-07-19T22:15:06.889Z,5.13
2018-07-19T22:17:36.036Z,4.93
2018-07-19T22:20:05.305Z,4.60
2018-07-19T22:22:34.727Z,4.90
2018-07-19T22:25:03.628Z,4.80
2018-07-19T22:27:32.656Z,5.60
2018-07-19T22:30:01.915Z,5.20
2018-07-19T22:32:31.080Z,5.20
2018-07-19T22:35:00.187Z,5.40
2018-07-19T22:37:29.398Z,4.90
2018-07-19T22:39:58.500Z,5.67
2018-07-19T22:42:27.504Z,5.00
2018-07-19T22:44:56.641Z,6.03
2018-07-19T22:47:25.816Z,5.30
2018-07-19T22:49:55.025Z,5.80
2018-07-19T22:52:24.174Z,5.57
2018-07-19T22:54:53.407Z,5.43
2018-07-19T22:57:22.573Z,5.00
2018-07-19T22:59:51.753Z,4.90
2018-07-19T23:02:20.914Z,4.90
2018-07-19T23:04:50.138Z,5.07
2018-07-19T23:07:19.270Z,5.30
2018-07-19T23:09:48.388Z,5.53
2018-07-19T23:12:18.607Z,5.47
2018-07-19T23:14:47.759Z,5.83
2018-07-19T23:17:16.919Z,6.20
2018-07-19T23:19:46.212Z,5.30
2018-07-19T23:22:15.408Z,5.47
2018-07-19T23:25:47.281Z,6.00
2018-07-19T23:28:16.448Z,6.43
2018-07-19T23:30:45.658Z,5.97
2018-07-19T23:33:14.817Z,6.17
2018-07-19T23:35:49.944Z,6.50
2018-07-19T23:38:23.091Z,5.93
2018-07-19T23:40:53.320Z,6.20
2018-07-19T23:43:26.346Z,6.57
2018-07-19T23:46:00.505Z,5.93
2018-07-19T23:48:29.763Z,5.90
2018-07-19T23:50:58.912Z,6.13
2018-07-19T23:53:28.086Z,5.77
2018-07-19T23:55:57.224Z,6.10
2018-07-19T23:58:26.378Z,5.73
